createdAt,value
2019-05-28T00:01:37.361Z,6.77
2019-05-28T00:04:06.086Z,6.67
2019-05-28T00:06:36.216Z,7.47
2019-05-28T00:09:07.542Z,7.23
2019-05-28T00:11:36.289Z,4.40
2019-05-28T00:14:05.320Z,4.47
2019-05-28T00:16:34.055Z,4.70
2019-05-28T00:19:02.785Z,4.20
2019-05-28T00:21:31.918Z,5.33
2019-05-28T00:24:00.688Z,7.67
2019-05-28T00:26:29.440Z,8.70
2019-05-28T00:28:58.119Z,8.00
2019-05-28T00:31:26.961Z,8.20
2019-05-28T00:33:55.637Z,8.47
2019-05-28T00:36:24.402Z,7.57
2019-05-28T00:38:53.060Z,7.93
2019-05-28T00:41:21.780Z,7.17
2019-05-28T00:43:50.516Z,6.30
2019-05-28T00:46:19.247Z,5.40
2019-05-28T00:48:48.012Z,4.70
2019-05-28T00:51:16.775Z,5.40
2019-05-28T00:53:45.448Z,5.10
2019-05-28T00:56:14.163Z,5.10
2019-05-28T00:58:42.994Z,6.20
2019-05-28T01:01:13.179Z,5.50
2019-05-28T01:03:42.168Z,5.57
2019-05-28T01:06:11.019Z,5.00
2019-05-28T01:08:39.680Z,4.40
2019-05-28T01:11:08.359Z,3.30
2019-05-28T01:13:37.071Z,4.60
2019-05-28T01:16:05.790Z,4.80
2019-05-28T01:18:34.443Z,5.07
2019-05-28T01:21:03.191Z,3.40
2019-05-28T01:23:31.860Z,3.37
2019-05-28T01:26:00.906Z,3.23
2019-05-28T01:28:29.728Z,2.90
2019-05-28T01:31:00.891Z,2.97
2019-05-28T01:33:28.925Z,3.00
2019-05-28T01:35:57.573Z,3.07
2019-05-28T01:38:26.285Z,3.73
2019-05-28T01:40:54.950Z,5.20
2019-05-28T01:43:23.684Z,5.93
2019-05-28T01:45:52.362Z,5.20
2019-05-28T01:48:21.034Z,5.53
2019-05-28T01:50:49.662Z,3.70
2019-05-28T01:53:18.466Z,4.43
2019-05-28T01:55:47.099Z,4.00
2019-05-28T01:58:15.968Z,4.03
2019-05-28T02:00:46.072Z,4.63
2019-05-28T02:03:15.557Z,3.47
2019-05-28T02:05:44.841Z,3.30
2019-05-28T02:08:13.555Z,2.30
2019-05-28T02:10:42.242Z,3.03
2019-05-28T02:13:10.965Z,2.90
2019-05-28T02:15:39.737Z,2.50
2019-05-28T02:18:08.456Z,2.50
2019-05-28T02:20:37.174Z,2.43
2019-05-28T02:23:05.938Z,3.03
2019-05-28T02:25:34.559Z,3.47
2019-05-28T02:28:03.249Z,3.07
2019-05-28T02:30:31.896Z,3.40
2019-05-28T02:33:00.562Z,2.03
2019-05-28T02:35:29.233Z,2.47
2019-05-28T02:37:57.906Z,2.73
2019-05-28T02:40:26.617Z,3.07
2019-05-28T02:42:55.334Z,2.67
2019-05-28T02:45:24.436Z,2.17
2019-05-28T02:47:53.102Z,2.90
2019-05-28T02:50:42.931Z,2.80
2019-05-28T02:53:11.624Z,2.40
2019-05-28T02:55:40.750Z,2.70
2019-05-28T02:58:09.831Z,2.57
2019-05-28T03:00:39.043Z,2.60
2019-05-28T03:03:07.738Z,2.00
2019-05-28T03:05:36.374Z,3.83
2019-05-28T03:08:04.971Z,3.40
2019-05-28T03:11:01.170Z,3.10
2019-05-28T03:13:10.273Z,2.97
2019-05-28T03:15:41.374Z,3.23
2019-05-28T03:18:12.014Z,3.50
2019-05-28T03:20:42.057Z,3.57
2019-05-28T03:23:12.158Z,3.77
2019-05-28T03:25:40.917Z,2.80
2019-05-28T03:28:09.536Z,3.17
2019-05-28T03:30:38.213Z,3.37
2019-05-28T03:33:06.837Z,2.77
2019-05-28T03:35:36.643Z,2.63
2019-05-28T03:38:05.285Z,2.80
2019-05-28T03:40:42.289Z,2.80
2019-05-28T03:43:10.953Z,2.90
2019-05-28T03:45:39.933Z,3.30
2019-05-28T03:48:09.164Z,3.53
2019-05-28T03:50:38.082Z,3.80
2019-05-28T03:53:07.036Z,3.10
2019-05-28T03:55:35.712Z,3.30
2019-05-28T03:58:04.394Z,2.57
2019-05-28T04:00:33.078Z,2.10
2019-05-28T04:03:01.712Z,2.70
2019-05-28T04:05:30.987Z,3.03
2019-05-28T04:07:59.628Z,2.23
2019-05-28T04:10:28.296Z,2.30
2019-05-28T04:12:56.966Z,3.53
2019-05-28T04:15:27.263Z,2.30
2019-05-28T04:17:55.904Z,2.80
2019-05-28T04:20:24.516Z,3.20
2019-05-28T04:22:53.210Z,2.50
2019-05-28T04:25:21.976Z,2.93
2019-05-28T04:27:50.755Z,2.80
2019-05-28T04:30:19.551Z,2.87
2019-05-28T04:32:48.268Z,3.40
2019-05-28T04:35:16.903Z,3.00
2019-05-28T04:37:45.526Z,2.80
2019-05-28T04:40:14.238Z,3.77
2019-05-28T04:42:42.941Z,3.07
2019-05-28T04:45:11.697Z,3.10
2019-05-28T04:47:40.397Z,3.30
2019-05-28T04:50:09.375Z,2.67
2019-05-28T04:52:38.209Z,2.63
2019-05-28T04:55:06.956Z,2.57
2019-05-28T04:57:35.586Z,3.33
2019-05-28T05:00:07.295Z,2.83
2019-05-28T05:02:35.926Z,3.40
2019-05-28T05:05:06.487Z,3.70
2019-05-28T05:07:35.148Z,3.37
2019-05-28T05:10:04.763Z,4.37
2019-05-28T05:12:33.453Z,4.27
2019-05-28T05:15:02.315Z,3.80
2019-05-28T05:17:31.406Z,4.17
2019-05-28T05:20:00.073Z,4.60
2019-05-28T05:22:28.874Z,4.60
2019-05-28T05:24:57.584Z,4.13
2019-05-28T05:27:26.263Z,4.43
2019-05-28T05:29:54.946Z,3.60
2019-05-28T05:32:27.508Z,4.00
2019-05-28T05:34:54.076Z,4.60
2019-05-28T05:37:22.686Z,4.00
2019-05-28T05:39:51.313Z,3.63
2019-05-28T05:42:20.034Z,4.70
2019-05-28T05:44:48.668Z,4.50
2019-05-28T05:47:17.297Z,4.37
2019-05-28T05:49:46.010Z,4.10
2019-05-28T05:52:14.625Z,5.20
2019-05-28T05:54:43.336Z,4.20
2019-05-28T05:57:12.038Z,4.77
2019-05-28T05:59:40.661Z,4.90
2019-05-28T06:02:09.373Z,4.20
2019-05-28T06:04:38.057Z,4.50
2019-05-28T06:07:06.694Z,3.80
2019-05-28T06:09:35.507Z,3.60
2019-05-28T06:12:04.152Z,4.23
2019-05-28T06:14:32.856Z,4.57
2019-05-28T06:17:01.470Z,4.87
2019-05-28T06:19:30.100Z,5.63
2019-05-28T06:21:58.762Z,5.57
2019-05-28T06:24:27.473Z,6.47
2019-05-28T06:26:56.090Z,5.90
2019-05-28T06:29:24.722Z,5.40
2019-05-28T06:31:53.452Z,5.00
2019-05-28T06:34:22.071Z,5.53
2019-05-28T06:36:50.749Z,4.60
2019-05-28T06:39:19.383Z,5.63
2019-05-28T06:41:48.062Z,5.67
2019-05-28T06:44:16.678Z,4.70
2019-05-28T06:46:45.381Z,5.03
2019-05-28T06:49:14.003Z,6.10
2019-05-28T06:51:42.692Z,6.33
2019-05-28T06:54:12.017Z,6.37
2019-05-28T06:56:40.891Z,6.27
2019-05-28T06:59:09.509Z,6.20
2019-05-28T07:01:38.231Z,5.60
2019-05-28T07:04:13.797Z,5.47
2019-05-28T07:06:37.393Z,5.90
2019-05-28T07:09:07.291Z,4.90
2019-05-28T07:11:35.993Z,5.30
2019-05-28T07:14:04.815Z,5.20
2019-05-28T07:16:33.548Z,7.40
2019-05-28T07:19:02.197Z,4.47
2019-05-28T07:21:30.921Z,5.17
2019-05-28T07:23:59.611Z,4.20
2019-05-28T07:26:28.220Z,4.40
2019-05-28T07:28:56.848Z,3.70
2019-05-28T07:31:25.562Z,3.40
2019-05-28T07:33:54.259Z,4.47
2019-05-28T07:36:22.886Z,3.87
2019-05-28T07:38:51.566Z,4.67
2019-05-28T07:41:20.188Z,4.53
2019-05-28T07:43:48.831Z,5.87
2019-05-28T07:46:17.459Z,7.60
2019-05-28T07:48:46.145Z,5.83
2019-05-28T07:51:14.761Z,5.10
2019-05-28T07:53:43.472Z,5.40
2019-05-28T07:56:12.153Z,4.97
2019-05-28T07:58:40.909Z,4.00
2019-05-28T08:01:09.530Z,4.67
2019-05-28T08:03:38.214Z,4.07
2019-05-28T08:06:06.857Z,4.63
2019-05-28T08:08:35.841Z,5.53
2019-05-28T08:11:04.519Z,4.17
2019-05-28T08:13:40.516Z,3.97
2019-05-28T08:16:17.360Z,4.93
2019-05-28T08:18:34.191Z,5.00
2019-05-28T08:21:02.809Z,4.57
2019-05-28T08:23:31.497Z,3.60
2019-05-28T08:26:01.953Z,4.07
2019-05-28T08:28:30.527Z,3.40
2019-05-28T08:31:14.007Z,4.43
2019-05-28T08:33:29.628Z,15.93
2019-05-28T08:35:58.305Z,4.13
2019-05-28T08:38:26.992Z,4.50
2019-05-28T08:40:55.612Z,7.63
2019-05-28T08:43:24.228Z,4.37
2019-05-28T08:45:52.914Z,4.53
2019-05-28T08:48:21.579Z,6.57
2019-05-28T08:50:50.300Z,7.17
2019-05-28T08:53:19.060Z,3.77
2019-05-28T08:55:47.820Z,4.13
2019-05-28T08:58:16.496Z,5.90
2019-05-28T09:00:46.520Z,7.90
2019-05-28T09:03:15.632Z,10.47
2019-05-28T09:05:44.318Z,3.87
2019-05-28T09:08:14.519Z,6.03
2019-05-28T09:10:43.187Z,4.33
2019-05-28T09:13:11.644Z,9.23
2019-05-28T09:15:40.330Z,10.00
2019-05-28T09:18:09.069Z,5.37
2019-05-28T09:20:37.818Z,6.00
2019-05-28T09:23:06.497Z,5.13
2019-05-28T09:25:35.126Z,8.77
2019-05-28T09:28:03.829Z,4.23
2019-05-28T09:30:32.580Z,3.93
2019-05-28T09:33:01.487Z,9.43
2019-05-28T09:35:43.998Z,5.67
2019-05-28T09:38:00.608Z,3.63
2019-05-28T09:40:48.427Z,5.73
2019-05-28T09:43:02.561Z,5.97
2019-05-28T09:45:31.226Z,4.67
2019-05-28T09:47:59.981Z,5.00
2019-05-28T09:50:31.063Z,11.80
2019-05-28T09:53:00.840Z,1.60
2019-05-28T09:55:29.441Z,3.10
2019-05-28T09:57:58.160Z,11.80
2019-05-28T10:00:28.737Z,4.27
2019-05-28T10:02:57.705Z,2.60
2019-05-28T10:05:26.432Z,4.00
2019-05-28T10:07:55.113Z,5.20
2019-05-28T10:10:23.927Z,4.63
2019-05-28T10:12:52.609Z,9.83
2019-05-28T10:15:21.580Z,9.83
2019-05-28T10:17:51.343Z,4.93
2019-05-28T10:20:20.714Z,5.60
2019-05-28T10:22:49.444Z,5.03
2019-05-28T10:25:18.313Z,12.60
2019-05-28T10:28:00.269Z,14.87
2019-05-28T10:30:18.658Z,11.57
2019-05-28T10:32:47.672Z,8.27
2019-05-28T10:35:16.971Z,5.47
2019-05-28T10:37:45.709Z,6.60
2019-05-28T10:40:14.508Z,4.57
2019-05-28T10:42:43.207Z,2.87
2019-05-28T10:45:12.478Z,6.93
2019-05-28T10:47:41.196Z,12.83
2019-05-28T10:50:10.156Z,3.80
2019-05-28T10:52:38.856Z,3.80
2019-05-28T10:55:07.899Z,2.80
2019-05-28T10:57:36.584Z,4.10
2019-05-28T11:00:09.485Z,2.67
2019-05-28T11:02:39.773Z,2.67
2019-05-28T11:05:09.271Z,2.07
2019-05-28T11:07:37.885Z,2.30
2019-05-28T11:10:23.331Z,3.37
2019-05-28T11:12:39.545Z,3.30
2019-05-28T11:15:12.052Z,4.90
2019-05-28T11:17:40.214Z,3.90
2019-05-28T11:20:11.386Z,6.30
2019-05-28T11:22:40.060Z,6.20
2019-05-28T11:25:09.950Z,3.30
2019-05-28T11:27:38.754Z,1.63
2019-05-28T11:30:10.491Z,11.13
2019-05-28T11:32:39.188Z,1.97
2019-05-28T11:35:10.482Z,2.20
2019-05-28T11:37:39.161Z,1.73
2019-05-28T11:40:12.199Z,1.17
2019-05-28T11:42:41.495Z,1.50
2019-05-28T11:45:13.719Z,3.30
2019-05-28T11:47:42.348Z,5.13
2019-05-28T11:50:11.313Z,1.40
2019-05-28T11:52:39.949Z,2.30
2019-05-28T11:55:14.202Z,0.70
2019-05-28T11:57:43.383Z,1.23
2019-05-28T12:00:14.230Z,1.10
2019-05-28T12:02:42.926Z,4.00
2019-05-28T12:05:12.207Z,0.90
2019-05-28T12:07:40.831Z,1.30
2019-05-28T12:10:10.233Z,1.80
2019-05-28T12:12:40.413Z,1.20
2019-05-28T12:15:11.192Z,1.33
2019-05-28T12:17:44.602Z,1.47
2019-05-28T12:20:13.334Z,1.27
2019-05-28T12:22:44.502Z,1.80
2019-05-28T12:25:14.364Z,1.17
2019-05-28T12:27:43.192Z,1.23
2019-05-28T12:30:18.173Z,0.80
2019-05-28T12:32:45.651Z,1.20
2019-05-28T12:35:27.348Z,1.30
2019-05-28T12:37:48.680Z,0.67
2019-05-28T12:40:16.323Z,0.70
2019-05-28T12:42:47.022Z,1.10
2019-05-28T12:45:16.353Z,1.17
2019-05-28T12:48:04.555Z,1.20
2019-05-28T12:50:20.362Z,0.80
2019-05-28T12:52:48.006Z,1.10
2019-05-28T12:55:17.757Z,0.80
2019-05-28T12:57:46.501Z,0.90
2019-05-28T13:00:15.714Z,1.10
2019-05-28T13:02:44.478Z,1.03
2019-05-28T13:05:16.738Z,1.00
2019-05-28T13:07:45.356Z,2.07
2019-05-28T13:10:16.938Z,1.50
2019-05-28T13:12:45.559Z,0.70
2019-05-28T13:15:14.689Z,0.80
2019-05-28T13:17:43.394Z,0.90
2019-05-28T13:20:12.283Z,0.80
2019-05-28T13:22:41.481Z,0.90
2019-05-28T13:25:10.398Z,1.50
2019-05-28T13:27:39.086Z,0.67
2019-05-28T13:30:12.943Z,1.73
2019-05-28T13:32:42.500Z,0.33
2019-05-28T13:35:12.905Z,0.87
2019-05-28T13:37:41.575Z,2.00
2019-05-28T13:40:11.474Z,3.30
2019-05-28T13:42:40.173Z,1.13
2019-05-28T13:45:09.973Z,1.10
2019-05-28T13:47:40.686Z,0.70
2019-05-28T13:50:10.022Z,1.30
2019-05-28T13:52:38.766Z,4.83
2019-05-28T13:55:09.034Z,0.80
2019-05-28T13:57:39.546Z,0.60
2019-05-28T14:00:16.928Z,0.30
2019-05-28T14:02:46.628Z,0.43
2019-05-28T14:05:16.853Z,0.60
2019-05-28T14:07:45.941Z,0.50
2019-05-28T14:10:15.526Z,0.50
2019-05-28T14:12:44.314Z,10.43
2019-05-28T14:15:16.835Z,1.50
2019-05-28T14:17:46.214Z,0.40
2019-05-28T14:20:17.466Z,1.10
2019-05-28T14:22:46.700Z,0.40
2019-05-28T14:25:17.832Z,0.40
2019-05-28T14:27:46.512Z,1.50
2019-05-28T14:30:21.995Z,0.60
2019-05-28T14:32:50.397Z,0.57
2019-05-28T14:35:19.556Z,0.40
2019-05-28T14:37:48.392Z,0.40
2019-05-28T14:40:17.884Z,0.20
2019-05-28T14:42:46.895Z,0.30
2019-05-28T14:45:16.419Z,0.40
2019-05-28T14:47:45.899Z,1.10
2019-05-28T14:50:14.792Z,2.33
2019-05-28T14:52:43.593Z,0.67
2019-05-28T14:55:15.307Z,0.50
2019-05-28T14:57:44.251Z,2.00
2019-05-28T15:00:18.303Z,2.07
2019-05-28T15:02:47.021Z,4.63
2019-05-28T15:05:18.511Z,0.53
2019-05-28T15:07:54.597Z,0.93
2019-05-28T15:10:23.375Z,0.30
2019-05-28T15:12:53.766Z,0.50
2019-05-28T15:15:35.425Z,0.47
2019-05-28T15:17:54.580Z,0.43
2019-05-28T15:20:23.352Z,0.70
2019-05-28T15:22:53.794Z,0.73
2019-05-28T15:25:28.719Z,0.60
2019-05-28T15:27:53.085Z,0.63
2019-05-28T15:30:23.608Z,0.40
2019-05-28T15:32:52.456Z,0.80
2019-05-28T15:35:22.855Z,0.30
2019-05-28T15:37:53.119Z,0.30
2019-05-28T15:40:22.297Z,0.40
2019-05-28T15:43:05.160Z,0.60
2019-05-28T15:45:21.578Z,0.57
2019-05-28T15:47:51.865Z,0.37
2019-05-28T15:50:20.746Z,0.80
2019-05-28T15:52:51.473Z,1.40
2019-05-28T15:55:20.355Z,1.07
2019-05-28T15:57:50.668Z,0.90
2019-05-28T16:00:25.843Z,0.70
2019-05-28T16:02:54.906Z,1.77
2019-05-28T16:05:23.676Z,1.63
2019-05-28T16:07:52.444Z,0.70
2019-05-28T16:10:21.244Z,1.20
2019-05-28T16:12:49.987Z,0.63
2019-05-28T16:15:20.069Z,0.87
2019-05-28T16:17:48.848Z,0.80
2019-05-28T16:20:18.189Z,1.00
2019-05-28T16:22:48.976Z,0.60
2019-05-28T16:25:18.890Z,0.90
2019-05-28T16:27:47.673Z,0.67
2019-05-28T16:30:16.926Z,1.30
2019-05-28T16:32:45.587Z,1.30
2019-05-28T16:35:14.630Z,1.00
2019-05-28T16:37:43.428Z,0.60
2019-05-28T16:40:15.813Z,0.97
2019-05-28T16:42:42.494Z,1.23
2019-05-28T16:45:12.220Z,1.00
2019-05-28T16:47:40.915Z,1.37
2019-05-28T16:50:13.454Z,2.00
2019-05-28T16:52:43.445Z,2.13
2019-05-28T16:55:15.899Z,1.87
2019-05-28T16:57:45.174Z,1.70
2019-05-28T17:00:14.161Z,1.30
2019-05-28T17:02:44.189Z,15.70
2019-05-28T17:05:15.337Z,3.33
2019-05-28T17:07:44.771Z,2.93
2019-05-28T17:10:31.041Z,3.57
2019-05-28T17:12:46.747Z,6.47
2019-05-28T17:15:16.698Z,8.93
2019-05-28T17:17:45.524Z,19.43
2019-05-28T17:20:19.625Z,2.33
2019-05-28T17:22:46.363Z,2.90
2019-05-28T17:25:15.481Z,7.73
2019-05-28T17:27:44.628Z,5.80
2019-05-28T17:30:19.316Z,2.90
2019-05-28T17:32:49.066Z,2.70
2019-05-28T17:35:17.600Z,14.73
2019-05-28T17:37:47.078Z,5.73
2019-05-28T17:40:22.048Z,7.80
2019-05-28T17:42:48.826Z,65.57
2019-05-28T17:45:19.214Z,68.90
2019-05-28T17:47:48.122Z,20.00
2019-05-28T17:50:18.083Z,2.93
2019-05-28T17:52:51.432Z,2.17
2019-05-28T17:55:19.073Z,1.67
2019-05-28T17:57:48.080Z,1.60
2019-05-28T18:00:16.914Z,1.60
2019-05-28T18:02:48.434Z,1.70
2019-05-28T18:05:19.797Z,3.60
2019-05-28T18:07:49.153Z,2.47
2019-05-28T18:10:18.796Z,2.07
2019-05-28T18:12:47.607Z,1.67
2019-05-28T18:15:16.853Z,1.57
2019-05-28T18:17:47.248Z,2.40
2019-05-28T18:20:16.900Z,1.70
2019-05-28T18:22:46.647Z,1.10
2019-05-28T18:25:15.727Z,1.77
2019-05-28T18:27:47.521Z,1.50
2019-05-28T18:30:16.876Z,1.83
2019-05-28T18:32:46.461Z,1.80
2019-05-28T18:35:16.023Z,2.63
2019-05-28T18:37:44.686Z,2.70
2019-05-28T18:40:16.711Z,1.83
2019-05-28T18:42:47.475Z,2.53
2019-05-28T18:45:16.330Z,1.90
2019-05-28T18:47:45.430Z,4.00
2019-05-28T18:50:14.229Z,3.23
2019-05-28T18:52:42.922Z,2.80
2019-05-28T18:55:14.042Z,2.60
2019-05-28T18:57:50.716Z,3.83
2019-05-28T19:00:16.978Z,2.20
2019-05-28T19:02:45.597Z,2.00
2019-05-28T19:05:14.670Z,2.60
2019-05-28T19:07:43.373Z,1.93
2019-05-28T19:10:12.875Z,2.07
2019-05-28T19:12:41.639Z,2.00
2019-05-28T19:15:10.817Z,1.53
2019-05-28T19:17:41.075Z,1.47
2019-05-28T19:20:10.243Z,2.40
2019-05-28T19:22:39.042Z,1.73
2019-05-28T19:25:09.731Z,1.63
2019-05-28T19:27:40.054Z,1.63
2019-05-28T19:30:11.868Z,1.60
2019-05-28T19:32:40.576Z,1.60
2019-05-28T19:35:09.422Z,1.43
2019-05-28T19:37:38.270Z,1.20
2019-05-28T19:40:07.060Z,0.70
2019-05-28T19:42:35.674Z,1.10
2019-05-28T19:45:08.481Z,1.30
2019-05-28T19:47:37.147Z,1.40
2019-05-28T19:50:08.738Z,1.47
2019-05-28T19:52:38.970Z,0.90
2019-05-28T19:55:08.172Z,1.30
2019-05-28T19:57:36.880Z,1.13
2019-05-28T20:00:08.936Z,0.80
2019-05-28T20:02:37.663Z,1.60
2019-05-28T20:05:09.237Z,0.97
2019-05-28T20:07:37.875Z,1.27
2019-05-28T20:10:07.324Z,2.10
2019-05-28T20:12:36.235Z,1.10
2019-05-28T20:15:08.370Z,1.40
2019-05-28T20:17:37.788Z,0.73
2019-05-28T20:20:08.410Z,1.03
2019-05-28T20:22:37.122Z,0.97
2019-05-28T20:25:07.758Z,0.63
2019-05-28T20:27:37.577Z,0.90
2019-05-28T20:30:09.403Z,1.40
2019-05-28T20:32:38.308Z,0.70
2019-05-28T20:35:09.812Z,1.13
2019-05-28T20:37:38.435Z,0.90
2019-05-28T20:40:08.112Z,0.73
2019-05-28T20:42:37.450Z,0.40
2019-05-28T20:45:11.926Z,0.53
2019-05-28T20:47:40.281Z,0.90
2019-05-28T20:50:09.630Z,0.50
2019-05-28T20:52:38.250Z,0.57
2019-05-28T20:55:10.743Z,0.77
2019-05-28T20:57:39.423Z,0.70
2019-05-28T21:00:09.193Z,0.80
2019-05-28T21:02:37.836Z,1.27
2019-05-28T21:05:07.865Z,1.40
2019-05-28T21:07:36.479Z,0.60
2019-05-28T21:10:09.603Z,0.40
2019-05-28T21:12:44.071Z,0.60
2019-05-28T21:15:10.229Z,0.70
2019-05-28T21:17:38.851Z,0.80
2019-05-28T21:20:08.675Z,0.53
2019-05-28T21:22:37.371Z,0.77
2019-05-28T21:25:06.997Z,0.80
2019-05-28T21:27:35.646Z,0.70
2019-05-28T21:30:08.090Z,0.67
2019-05-28T21:32:36.774Z,0.90
2019-05-28T21:35:06.572Z,0.40
2019-05-28T21:37:35.257Z,0.50
2019-05-28T21:40:04.674Z,1.00
2019-05-28T21:42:34.954Z,1.30
2019-05-28T21:45:04.090Z,0.70
2019-05-28T21:47:32.787Z,0.57
2019-05-28T21:50:01.995Z,0.60
2019-05-28T21:52:31.684Z,0.93
2019-05-28T21:55:01.707Z,0.40
2019-05-28T21:57:30.908Z,0.50
2019-05-28T22:00:00.020Z,0.70
2019-05-28T22:02:28.886Z,0.40
2019-05-28T22:05:01.415Z,0.77
2019-05-28T22:07:27.981Z,0.50
2019-05-28T22:09:57.669Z,1.00
2019-05-28T22:12:26.377Z,0.50
2019-05-28T22:14:55.913Z,0.40
2019-05-28T22:17:24.756Z,0.30
2019-05-28T22:19:53.436Z,0.40
2019-05-28T22:22:22.127Z,0.30
2019-05-28T22:24:50.853Z,0.30
2019-05-28T22:27:19.555Z,0.30
2019-05-28T22:29:48.168Z,0.40
2019-05-28T22:32:16.875Z,0.30
2019-05-28T22:34:45.500Z,0.40
2019-05-28T22:37:14.273Z,0.30
2019-05-28T22:39:42.889Z,0.30
2019-05-28T22:42:11.575Z,0.30
2019-05-28T22:44:40.192Z,0.70
2019-05-28T22:47:08.879Z,0.40
2019-05-28T22:49:37.548Z,0.30
2019-05-28T22:52:06.226Z,0.63
2019-05-28T22:54:34.934Z,0.50
2019-05-28T22:57:05.205Z,0.60
2019-05-28T22:59:36.407Z,0.40
2019-05-28T23:02:05.069Z,0.57
2019-05-28T23:04:33.965Z,0.40
2019-05-28T23:07:03.329Z,0.33
2019-05-28T23:09:32.043Z,0.40
2019-05-28T23:12:01.614Z,0.57
2019-05-28T23:14:30.506Z,0.60
2019-05-28T23:17:00.256Z,0.50
2019-05-28T23:19:29.145Z,0.60
2019-05-28T23:21:57.808Z,0.53
2019-05-28T23:24:26.513Z,0.83
2019-05-28T23:26:55.251Z,0.43
2019-05-28T23:29:23.877Z,0.80
2019-05-28T23:31:52.561Z,0.70
2019-05-28T23:34:21.171Z,0.43
2019-05-28T23:36:49.781Z,0.50
2019-05-28T23:39:20.523Z,0.70
2019-05-28T23:41:49.197Z,0.57
2019-05-28T23:44:18.124Z,0.50
2019-05-28T23:46:46.737Z,0.83
2019-05-28T23:49:15.931Z,0.50
2019-05-28T23:51:44.553Z,0.50
2019-05-28T23:54:13.913Z,0.90
2019-05-28T23:56:42.746Z,0.60
2019-05-28T23:59:11.835Z,0.50
